sensor_id;sensor_type;location;lat;lon;timestamp;pressure;altitude;pressure_sealevel;temperature;humidity
16613;BME280;8419;52.358;9.752;2023-08-31T00:02:42;99985.00;;;21.95;48.20
16613;BME280;8419;52.358;9.752;2023-08-31T00:05:28;99982.00;;;21.92;48.24
16613;BME280;8419;52.358;9.752;2023-08-31T00:08:15;99984.00;;;21.90;48.24
16613;BME280;8419;52.358;9.752;2023-08-31T00:11:02;99992.00;;;21.85;48.23
16613;BME280;8419;52.358;9.752;2023-08-31T00:13:48;99978.00;;;21.85;48.26
16613;BME280;8419;52.358;9.752;2023-08-31T00:16:33;99986.00;;;21.81;48.24
16613;BME280;8419;52.358;9.752;2023-08-31T00:19:19;99980.00;;;21.80;48.30
16613;BME280;8419;52.358;9.752;2023-08-31T00:22:05;99987.00;;;21.80;48.26
16613;BME280;8419;52.358;9.752;2023-08-31T00:24:51;99990.00;;;21.75;48.33
16613;BME280;8419;52.358;9.752;2023-08-31T00:27:37;99974.00;;;21.71;48.31
16613;BME280;8419;52.358;9.752;2023-08-31T00:30:23;99980.00;;;21.66;48.40
16613;BME280;8419;52.358;9.752;2023-08-31T00:33:13;99988.00;;;21.63;48.40
16613;BME280;8419;52.358;9.752;2023-08-31T00:36:00;99983.00;;;21.62;48.40
16613;BME280;8419;52.358;9.752;2023-08-31T00:38:48;99982.00;;;21.60;48.44
16613;BME280;8419;52.358;9.752;2023-08-31T00:41:34;99989.00;;;21.57;48.46
16613;BME280;8419;52.358;9.752;2023-08-31T00:44:20;99993.00;;;21.56;48.42
16613;BME280;8419;52.358;9.752;2023-08-31T00:47:06;99985.00;;;21.56;48.37
16613;BME280;8419;52.358;9.752;2023-08-31T00:49:52;99984.00;;;21.51;48.44
16613;BME280;8419;52.358;9.752;2023-08-31T00:52:38;100004.00;;;21.45;48.53
16613;BME280;8419;52.358;9.752;2023-08-31T00:55:25;100000.00;;;21.44;48.53
16613;BME280;8419;52.358;9.752;2023-08-31T00:58:12;99998.00;;;21.43;48.52
16613;BME280;8419;52.358;9.752;2023-08-31T01:01:06;99996.00;;;21.39;48.61
16613;BME280;8419;52.358;9.752;2023-08-31T01:04:01;99996.00;;;21.35;48.67
16613;BME280;8419;52.358;9.752;2023-08-31T01:06:56;99990.00;;;21.33;48.71
16613;BME280;8419;52.358;9.752;2023-08-31T01:09:54;99996.00;;;21.32;48.72
16613;BME280;8419;52.358;9.752;2023-08-31T01:12:50;99995.00;;;21.30;48.70
16613;BME280;8419;52.358;9.752;2023-08-31T01:15:39;99989.00;;;21.28;48.70
16613;BME280;8419;52.358;9.752;2023-08-31T01:18:29;99993.00;;;21.27;48.65
16613;BME280;8419;52.358;9.752;2023-08-31T01:21:27;99997.00;;;21.26;48.64
16613;BME280;8419;52.358;9.752;2023-08-31T01:24:15;100005.00;;;21.28;48.60
16613;BME280;8419;52.358;9.752;2023-08-31T01:27:02;100002.00;;;21.26;48.54
16613;BME280;8419;52.358;9.752;2023-08-31T01:29:48;100000.00;;;21.25;48.53
16613;BME280;8419;52.358;9.752;2023-08-31T01:32:35;100002.00;;;21.26;48.50
16613;BME280;8419;52.358;9.752;2023-08-31T01:35:20;100010.00;;;21.29;48.35
16613;BME280;8419;52.358;9.752;2023-08-31T01:38:06;100012.00;;;21.29;48.31
16613;BME280;8419;52.358;9.752;2023-08-31T01:40:58;100006.00;;;21.27;48.31
16613;BME280;8419;52.358;9.752;2023-08-31T01:43:48;100011.00;;;21.20;48.46
16613;BME280;8419;52.358;9.752;2023-08-31T01:46:34;100013.00;;;21.17;48.50
16613;BME280;8419;52.358;9.752;2023-08-31T01:49:20;100009.00;;;21.14;48.51
16613;BME280;8419;52.358;9.752;2023-08-31T01:52:06;100023.00;;;21.15;48.48
16613;BME280;8419;52.358;9.752;2023-08-31T01:54:52;100020.00;;;21.13;48.48
16613;BME280;8419;52.358;9.752;2023-08-31T01:57:37;100032.00;;;21.12;48.50
16613;BME280;8419;52.358;9.752;2023-08-31T02:00:23;100039.00;;;21.16;48.35
16613;BME280;8419;52.358;9.752;2023-08-31T02:03:08;100036.00;;;21.13;48.42
16613;BME280;8419;52.358;9.752;2023-08-31T02:05:55;100042.00;;;21.20;48.27
16613;BME280;8419;52.358;9.752;2023-08-31T02:08:41;100041.00;;;21.21;48.27
16613;BME280;8419;52.358;9.752;2023-08-31T02:11:29;100041.00;;;21.21;48.27
16613;BME280;8419;52.358;9.752;2023-08-31T02:14:16;100035.00;;;21.14;48.41
16613;BME280;8419;52.358;9.752;2023-08-31T02:17:03;100034.00;;;21.13;48.42
16613;BME280;8419;52.358;9.752;2023-08-31T02:19:49;100037.00;;;21.12;48.46
16613;BME280;8419;52.358;9.752;2023-08-31T02:22:35;100040.00;;;21.10;48.44
16613;BME280;8419;52.358;9.752;2023-08-31T02:25:24;100038.00;;;21.11;48.38
16613;BME280;8419;52.358;9.752;2023-08-31T02:28:13;100044.00;;;21.09;48.40
16613;BME280;8419;52.358;9.752;2023-08-31T02:30:59;100045.00;;;21.04;48.46
16613;BME280;8419;52.358;9.752;2023-08-31T02:33:45;100044.00;;;21.03;48.45
16613;BME280;8419;52.358;9.752;2023-08-31T02:36:31;100050.00;;;21.07;48.35
16613;BME280;8419;52.358;9.752;2023-08-31T02:39:17;100048.00;;;21.06;48.37
16613;BME280;8419;52.358;9.752;2023-08-31T02:42:02;100045.00;;;21.04;48.38
16613;BME280;8419;52.358;9.752;2023-08-31T02:44:53;100062.00;;;21.06;48.34
16613;BME280;8419;52.358;9.752;2023-08-31T02:47:38;100049.00;;;21.03;48.39
16613;BME280;8419;52.358;9.752;2023-08-31T02:50:24;100051.00;;;21.04;48.36
16613;BME280;8419;52.358;9.752;2023-08-31T02:53:10;100050.00;;;21.04;48.35
16613;BME280;8419;52.358;9.752;2023-08-31T02:55:56;100050.00;;;21.05;48.30
16613;BME280;8419;52.358;9.752;2023-08-31T02:58:42;100057.00;;;21.04;48.28
16613;BME280;8419;52.358;9.752;2023-08-31T03:01:28;100057.00;;;21.03;48.26
16613;BME280;8419;52.358;9.752;2023-08-31T03:04:13;100055.00;;;21.00;48.27
16613;BME280;8419;52.358;9.752;2023-08-31T03:06:59;100047.00;;;20.85;48.53
16613;BME280;8419;52.358;9.752;2023-08-31T03:09:49;100043.00;;;20.86;48.47
16613;BME280;8419;52.358;9.752;2023-08-31T03:12:35;100046.00;;;20.86;48.44
16613;BME280;8419;52.358;9.752;2023-08-31T03:15:21;100046.00;;;20.85;48.41
16613;BME280;8419;52.358;9.752;2023-08-31T03:18:07;100046.00;;;20.86;48.35
16613;BME280;8419;52.358;9.752;2023-08-31T03:20:52;100048.00;;;20.85;48.33
16613;BME280;8419;52.358;9.752;2023-08-31T03:23:38;100046.00;;;20.73;48.55
16613;BME280;8419;52.358;9.752;2023-08-31T03:26:23;100043.00;;;20.75;48.57
16613;BME280;8419;52.358;9.752;2023-08-31T03:29:09;100040.00;;;20.86;48.29
16613;BME280;8419;52.358;9.752;2023-08-31T03:31:55;100040.00;;;20.91;48.26
16613;BME280;8419;52.358;9.752;2023-08-31T03:34:40;100043.00;;;20.97;48.22
16613;BME280;8419;52.358;9.752;2023-08-31T03:37:26;100045.00;;;21.04;48.11
16613;BME280;8419;52.358;9.752;2023-08-31T03:40:12;100045.00;;;21.09;48.00
16613;BME280;8419;52.358;9.752;2023-08-31T03:42:59;100047.00;;;21.02;48.16
16613;BME280;8419;52.358;9.752;2023-08-31T03:45:45;100045.00;;;21.04;48.11
16613;BME280;8419;52.358;9.752;2023-08-31T03:48:31;100053.00;;;20.98;48.16
16613;BME280;8419;52.358;9.752;2023-08-31T03:51:16;100058.00;;;20.92;48.24
16613;BME280;8419;52.358;9.752;2023-08-31T03:54:02;100063.00;;;20.82;48.41
16613;BME280;8419;52.358;9.752;2023-08-31T03:56:48;100064.00;;;20.86;48.31
16613;BME280;8419;52.358;9.752;2023-08-31T03:59:33;100065.00;;;20.87;48.20
16613;BME280;8419;52.358;9.752;2023-08-31T04:02:19;100066.00;;;20.84;48.24
16613;BME280;8419;52.358;9.752;2023-08-31T04:05:07;100065.00;;;20.83;48.26
16613;BME280;8419;52.358;9.752;2023-08-31T04:07:54;100066.00;;;20.87;48.23
16613;BME280;8419;52.358;9.752;2023-08-31T04:10:39;100060.00;;;20.95;48.11
16613;BME280;8419;52.358;9.752;2023-08-31T04:13:25;100076.00;;;20.88;48.36
16613;BME280;8419;52.358;9.752;2023-08-31T04:16:11;100076.00;;;21.00;48.24
16613;BME280;8419;52.358;9.752;2023-08-31T04:18:57;100075.00;;;21.04;48.08
16613;BME280;8419;52.358;9.752;2023-08-31T04:21:42;100077.00;;;21.04;48.07
16613;BME280;8419;52.358;9.752;2023-08-31T04:24:28;100084.00;;;21.05;48.03
16613;BME280;8419;52.358;9.752;2023-08-31T04:27:13;100082.00;;;21.07;48.00
16613;BME280;8419;52.358;9.752;2023-08-31T04:30:03;100095.00;;;21.11;47.89
16613;BME280;8419;52.358;9.752;2023-08-31T04:32:48;100098.00;;;21.02;48.13
16613;BME280;8419;52.358;9.752;2023-08-31T04:35:34;100107.00;;;21.05;48.11
16613;BME280;8419;52.358;9.752;2023-08-31T04:38:19;100100.00;;;21.11;48.07
16613;BME280;8419;52.358;9.752;2023-08-31T04:41:05;100114.00;;;21.19;47.95
16613;BME280;8419;52.358;9.752;2023-08-31T04:43:51;100104.00;;;21.26;47.91
16613;BME280;8419;52.358;9.752;2023-08-31T04:46:38;100097.00;;;21.38;47.81
16613;BME280;8419;52.358;9.752;2023-08-31T04:49:23;100102.00;;;21.51;47.65
16613;BME280;8419;52.358;9.752;2023-08-31T04:52:09;100099.00;;;21.55;47.63
16613;BME280;8419;52.358;9.752;2023-08-31T04:54:55;100107.00;;;21.57;47.58
16613;BME280;8419;52.358;9.752;2023-08-31T04:57:40;100114.00;;;21.32;47.97
16613;BME280;8419;52.358;9.752;2023-08-31T05:00:26;100100.00;;;21.27;48.02
16613;BME280;8419;52.358;9.752;2023-08-31T05:03:12;100107.00;;;21.25;48.07
16613;BME280;8419;52.358;9.752;2023-08-31T05:05:57;100103.00;;;21.26;48.00
16613;BME280;8419;52.358;9.752;2023-08-31T05:08:43;100109.00;;;21.35;47.90
16613;BME280;8419;52.358;9.752;2023-08-31T05:11:29;100108.00;;;21.42;47.74
16613;BME280;8419;52.358;9.752;2023-08-31T05:14:14;100114.00;;;21.55;47.31
16613;BME280;8419;52.358;9.752;2023-08-31T05:17:00;100115.00;;;21.28;47.74
16613;BME280;8419;52.358;9.752;2023-08-31T05:19:46;100119.00;;;21.30;47.54
16613;BME280;8419;52.358;9.752;2023-08-31T05:22:32;100129.00;;;21.25;47.65
16613;BME280;8419;52.358;9.752;2023-08-31T05:25:18;100126.00;;;21.31;47.43
16613;BME280;8419;52.358;9.752;2023-08-31T05:28:04;100136.00;;;21.26;47.65
16613;BME280;8419;52.358;9.752;2023-08-31T05:30:51;100136.00;;;21.34;47.52
16613;BME280;8419;52.358;9.752;2023-08-31T05:33:37;100137.00;;;21.38;47.56
16613;BME280;8419;52.358;9.752;2023-08-31T05:36:22;100140.00;;;21.45;47.47
16613;BME280;8419;52.358;9.752;2023-08-31T05:39:09;100140.00;;;21.51;47.27
16613;BME280;8419;52.358;9.752;2023-08-31T05:41:55;100147.00;;;21.46;47.36
16613;BME280;8419;52.358;9.752;2023-08-31T05:44:42;100145.00;;;21.44;47.43
16613;BME280;8419;52.358;9.752;2023-08-31T05:47:27;100143.00;;;21.47;47.39
16613;BME280;8419;52.358;9.752;2023-08-31T05:50:13;100143.00;;;21.47;47.37
16613;BME280;8419;52.358;9.752;2023-08-31T05:52:59;100144.00;;;21.41;47.44
16613;BME280;8419;52.358;9.752;2023-08-31T05:55:44;100155.00;;;21.41;47.37
16613;BME280;8419;52.358;9.752;2023-08-31T05:58:30;100151.00;;;21.38;47.39
16613;BME280;8419;52.358;9.752;2023-08-31T06:01:15;100148.00;;;21.43;47.25
16613;BME280;8419;52.358;9.752;2023-08-31T06:04:01;100150.00;;;21.43;47.25
16613;BME280;8419;52.358;9.752;2023-08-31T06:06:48;100153.00;;;21.46;47.19
16613;BME280;8419;52.358;9.752;2023-08-31T06:09:34;100157.00;;;21.47;47.17
16613;BME280;8419;52.358;9.752;2023-08-31T06:12:19;100160.00;;;21.52;47.10
16613;BME280;8419;52.358;9.752;2023-08-31T06:15:07;100159.00;;;21.59;46.98
16613;BME280;8419;52.358;9.752;2023-08-31T06:17:52;100166.00;;;21.62;46.89
16613;BME280;8419;52.358;9.752;2023-08-31T06:20:37;100166.00;;;21.67;46.79
16613;BME280;8419;52.358;9.752;2023-08-31T06:23:23;100169.00;;;21.72;46.77
16613;BME280;8419;52.358;9.752;2023-08-31T06:26:08;100171.00;;;21.76;46.76
16613;BME280;8419;52.358;9.752;2023-08-31T06:28:54;100171.00;;;21.88;46.69
16613;BME280;8419;52.358;9.752;2023-08-31T06:31:40;100172.00;;;22.09;46.50
16613;BME280;8419;52.358;9.752;2023-08-31T06:34:25;100175.00;;;22.37;46.05
16613;BME280;8419;52.358;9.752;2023-08-31T06:37:11;100166.00;;;22.57;45.75
16613;BME280;8419;52.358;9.752;2023-08-31T06:39:56;100170.00;;;22.77;45.56
16613;BME280;8419;52.358;9.752;2023-08-31T06:42:42;100171.00;;;22.90;45.38
16613;BME280;8419;52.358;9.752;2023-08-31T06:45:29;100171.00;;;22.96;45.10
16613;BME280;8419;52.358;9.752;2023-08-31T06:48:15;100170.00;;;23.02;45.15
16613;BME280;8419;52.358;9.752;2023-08-31T06:51:03;100168.00;;;23.09;45.00
16613;BME280;8419;52.358;9.752;2023-08-31T06:53:48;100165.00;;;23.10;44.76
16613;BME280;8419;52.358;9.752;2023-08-31T06:56:34;100167.00;;;23.16;44.78
16613;BME280;8419;52.358;9.752;2023-08-31T06:59:19;100168.00;;;23.28;44.62
16613;BME280;8419;52.358;9.752;2023-08-31T07:02:05;100169.00;;;23.35;44.45
16613;BME280;8419;52.358;9.752;2023-08-31T07:04:51;100173.00;;;23.28;44.51
16613;BME280;8419;52.358;9.752;2023-08-31T07:07:37;100165.00;;;23.17;44.60
16613;BME280;8419;52.358;9.752;2023-08-31T07:10:24;100165.00;;;23.01;44.75
16613;BME280;8419;52.358;9.752;2023-08-31T07:13:10;100177.00;;;22.83;44.93
16613;BME280;8419;52.358;9.752;2023-08-31T07:15:55;100180.00;;;22.69;45.05
16613;BME280;8419;52.358;9.752;2023-08-31T07:18:41;100189.00;;;22.63;45.13
16613;BME280;8419;52.358;9.752;2023-08-31T07:21:27;100181.00;;;22.60;45.17
16613;BME280;8419;52.358;9.752;2023-08-31T07:24:12;100174.00;;;22.65;45.06
16613;BME280;8419;52.358;9.752;2023-08-31T07:26:58;100184.00;;;22.55;45.17
16613;BME280;8419;52.358;9.752;2023-08-31T07:29:44;100188.00;;;22.61;45.23
16613;BME280;8419;52.358;9.752;2023-08-31T07:32:31;100179.00;;;22.70;45.10
16613;BME280;8419;52.358;9.752;2023-08-31T07:35:17;100188.00;;;22.90;44.88
16613;BME280;8419;52.358;9.752;2023-08-31T07:38:02;100185.00;;;23.05;44.50
16613;BME280;8419;52.358;9.752;2023-08-31T07:40:51;100190.00;;;23.17;44.25
16613;BME280;8419;52.358;9.752;2023-08-31T07:43:36;100187.00;;;23.31;44.01
16613;BME280;8419;52.358;9.752;2023-08-31T07:46:22;100192.00;;;23.33;43.93
16613;BME280;8419;52.358;9.752;2023-08-31T07:49:08;100199.00;;;23.28;43.96
16613;BME280;8419;52.358;9.752;2023-08-31T07:51:54;100187.00;;;23.30;43.82
16613;BME280;8419;52.358;9.752;2023-08-31T07:54:39;100187.00;;;23.35;43.67
16613;BME280;8419;52.358;9.752;2023-08-31T07:57:25;100191.00;;;23.34;43.60
16613;BME280;8419;52.358;9.752;2023-08-31T08:00:13;100195.00;;;23.35;43.40
16613;BME280;8419;52.358;9.752;2023-08-31T08:02:59;100188.00;;;23.65;42.90
16613;BME280;8419;52.358;9.752;2023-08-31T08:05:45;100209.00;;;23.86;42.28
16613;BME280;8419;52.358;9.752;2023-08-31T08:08:30;100200.00;;;23.82;42.23
16613;BME280;8419;52.358;9.752;2023-08-31T08:11:16;100213.00;;;23.96;42.12
16613;BME280;8419;52.358;9.752;2023-08-31T08:14:02;100211.00;;;24.03;42.04
16613;BME280;8419;52.358;9.752;2023-08-31T08:16:48;100220.00;;;24.13;42.00
16613;BME280;8419;52.358;9.752;2023-08-31T08:19:33;100230.00;;;24.24;41.80
16613;BME280;8419;52.358;9.752;2023-08-31T08:22:19;100223.00;;;24.22;41.82
16613;BME280;8419;52.358;9.752;2023-08-31T08:25:06;100226.00;;;24.46;41.61
16613;BME280;8419;52.358;9.752;2023-08-31T08:27:52;100227.00;;;24.81;41.27
16613;BME280;8419;52.358;9.752;2023-08-31T08:30:37;100226.00;;;24.95;41.00
16613;BME280;8419;52.358;9.752;2023-08-31T08:33:23;100235.00;;;24.99;40.79
16613;BME280;8419;52.358;9.752;2023-08-31T08:36:09;100225.00;;;24.92;40.10
16613;BME280;8419;52.358;9.752;2023-08-31T08:38:55;100223.00;;;24.83;39.92
16613;BME280;8419;52.358;9.752;2023-08-31T08:41:42;100233.00;;;24.89;39.81
16613;BME280;8419;52.358;9.752;2023-08-31T08:44:31;100226.00;;;25.05;39.63
16613;BME280;8419;52.358;9.752;2023-08-31T08:47:18;100233.00;;;25.19;39.37
16613;BME280;8419;52.358;9.752;2023-08-31T08:50:06;100230.00;;;25.28;38.88
16613;BME280;8419;52.358;9.752;2023-08-31T08:52:51;100227.00;;;25.23;38.53
16613;BME280;8419;52.358;9.752;2023-08-31T08:55:38;100231.00;;;25.24;38.39
16613;BME280;8419;52.358;9.752;2023-08-31T08:58:24;100225.00;;;25.27;38.21
16613;BME280;8419;52.358;9.752;2023-08-31T09:01:09;100233.00;;;25.42;38.13
16613;BME280;8419;52.358;9.752;2023-08-31T09:03:55;100229.00;;;25.49;38.36
16613;BME280;8419;52.358;9.752;2023-08-31T09:06:41;100224.00;;;25.79;37.75
16613;BME280;8419;52.358;9.752;2023-08-31T09:09:26;100222.00;;;25.72;37.80
16613;BME280;8419;52.358;9.752;2023-08-31T09:12:12;100223.00;;;25.50;37.90
16613;BME280;8419;52.358;9.752;2023-08-31T09:14:59;100226.00;;;25.31;38.00
16613;BME280;8419;52.358;9.752;2023-08-31T09:17:44;100217.00;;;25.30;38.06
16613;BME280;8419;52.358;9.752;2023-08-31T09:20:32;100212.00;;;25.52;37.86
16613;BME280;8419;52.358;9.752;2023-08-31T09:23:28;100220.00;;;25.83;37.38
16613;BME280;8419;52.358;9.752;2023-08-31T09:26:14;100216.00;;;26.03;37.29
16613;BME280;8419;52.358;9.752;2023-08-31T09:28:59;100210.00;;;26.16;37.23
16613;BME280;8419;52.358;9.752;2023-08-31T09:31:46;100209.00;;;26.25;37.00
16613;BME280;8419;52.358;9.752;2023-08-31T09:34:34;100215.00;;;26.19;36.86
16613;BME280;8419;52.358;9.752;2023-08-31T09:37:19;100211.00;;;26.00;36.88
16613;BME280;8419;52.358;9.752;2023-08-31T09:40:07;100219.00;;;26.06;36.74
16613;BME280;8419;52.358;9.752;2023-08-31T09:42:53;100215.00;;;26.02;36.53
16613;BME280;8419;52.358;9.752;2023-08-31T09:45:38;100205.00;;;26.03;36.78
16613;BME280;8419;52.358;9.752;2023-08-31T09:48:25;100208.00;;;26.00;36.68
16613;BME280;8419;52.358;9.752;2023-08-31T09:51:11;100220.00;;;25.91;36.88
16613;BME280;8419;52.358;9.752;2023-08-31T09:54:00;100208.00;;;26.11;36.51
16613;BME280;8419;52.358;9.752;2023-08-31T09:56:48;100219.00;;;26.03;36.48
16613;BME280;8419;52.358;9.752;2023-08-31T09:59:34;100209.00;;;26.09;36.42
16613;BME280;8419;52.358;9.752;2023-08-31T10:02:20;100210.00;;;26.07;36.25
16613;BME280;8419;52.358;9.752;2023-08-31T10:05:08;100212.00;;;26.09;36.12
16613;BME280;8419;52.358;9.752;2023-08-31T10:07:54;100208.00;;;25.97;35.93
16613;BME280;8419;52.358;9.752;2023-08-31T10:10:40;100213.00;;;25.95;35.83
16613;BME280;8419;52.358;9.752;2023-08-31T10:13:27;100221.00;;;25.97;35.79
16613;BME280;8419;52.358;9.752;2023-08-31T10:16:17;100216.00;;;26.06;35.87
16613;BME280;8419;52.358;9.752;2023-08-31T10:19:04;100215.00;;;26.12;35.51
16613;BME280;8419;52.358;9.752;2023-08-31T10:21:50;100216.00;;;26.01;35.72
16613;BME280;8419;52.358;9.752;2023-08-31T10:24:56;100219.00;;;25.93;35.90
16613;BME280;8419;52.358;9.752;2023-08-31T10:27:43;100208.00;;;26.23;35.32
16613;BME280;8419;52.358;9.752;2023-08-31T10:30:32;100221.00;;;26.16;35.19
16613;BME280;8419;52.358;9.752;2023-08-31T10:33:22;100206.00;;;26.12;35.12
16613;BME280;8419;52.358;9.752;2023-08-31T10:36:12;100208.00;;;26.14;35.07
16613;BME280;8419;52.358;9.752;2023-08-31T10:39:05;100207.00;;;25.85;35.56
16613;BME280;8419;52.358;9.752;2023-08-31T10:41:55;100231.00;;;25.86;35.64
16613;BME280;8419;52.358;9.752;2023-08-31T10:44:42;100219.00;;;25.92;35.69
16613;BME280;8419;52.358;9.752;2023-08-31T10:47:37;100218.00;;;25.99;35.61
16613;BME280;8419;52.358;9.752;2023-08-31T10:50:25;100228.00;;;25.94;35.63
16613;BME280;8419;52.358;9.752;2023-08-31T10:53:10;100228.00;;;25.81;35.61
16613;BME280;8419;52.358;9.752;2023-08-31T10:55:56;100218.00;;;25.71;35.22
16613;BME280;8419;52.358;9.752;2023-08-31T10:58:42;100232.00;;;25.73;35.11
16613;BME280;8419;52.358;9.752;2023-08-31T11:05:11;100228.00;;;26.25;34.88
16613;BME280;8419;52.358;9.752;2023-08-31T11:08:01;100223.00;;;26.10;34.61
16613;BME280;8419;52.358;9.752;2023-08-31T11:10:48;100231.00;;;26.07;34.91
16613;BME280;8419;52.358;9.752;2023-08-31T11:13:36;100221.00;;;26.06;34.93
16613;BME280;8419;52.358;9.752;2023-08-31T11:16:23;100216.00;;;26.19;34.94
16613;BME280;8419;52.358;9.752;2023-08-31T11:19:09;100212.00;;;26.43;34.71
16613;BME280;8419;52.358;9.752;2023-08-31T11:21:55;100202.00;;;26.76;34.33
16613;BME280;8419;52.358;9.752;2023-08-31T11:24:40;100216.00;;;26.88;33.62
16613;BME280;8419;52.358;9.752;2023-08-31T11:27:26;100214.00;;;26.82;33.29
16613;BME280;8419;52.358;9.752;2023-08-31T11:30:14;100215.00;;;26.71;32.98
16613;BME280;8419;52.358;9.752;2023-08-31T11:33:03;100213.00;;;26.68;33.00
16613;BME280;8419;52.358;9.752;2023-08-31T11:35:49;100212.00;;;26.64;32.92
16613;BME280;8419;52.358;9.752;2023-08-31T11:38:36;100215.00;;;26.89;32.75
16613;BME280;8419;52.358;9.752;2023-08-31T11:41:23;100215.00;;;27.23;32.40
16613;BME280;8419;52.358;9.752;2023-08-31T11:44:09;100206.00;;;27.28;32.17
16613;BME280;8419;52.358;9.752;2023-08-31T11:46:55;100207.00;;;27.51;31.89
16613;BME280;8419;52.358;9.752;2023-08-31T11:49:42;100213.00;;;27.93;31.52
16613;BME280;8419;52.358;9.752;2023-08-31T11:52:27;100205.00;;;28.16;31.32
16613;BME280;8419;52.358;9.752;2023-08-31T11:55:16;100211.00;;;28.10;31.27
16613;BME280;8419;52.358;9.752;2023-08-31T11:58:03;100212.00;;;27.81;31.15
16613;BME280;8419;52.358;9.752;2023-08-31T12:00:57;100211.00;;;27.62;31.08
16613;BME280;8419;52.358;9.752;2023-08-31T12:03:44;100202.00;;;27.78;31.02
16613;BME280;8419;52.358;9.752;2023-08-31T12:06:30;100208.00;;;28.15;30.69
16613;BME280;8419;52.358;9.752;2023-08-31T12:09:15;100199.00;;;28.65;30.27
16613;BME280;8419;52.358;9.752;2023-08-31T12:12:01;100207.00;;;29.03;29.68
16613;BME280;8419;52.358;9.752;2023-08-31T12:14:53;100201.00;;;29.50;29.11
16613;BME280;8419;52.358;9.752;2023-08-31T12:17:39;100200.00;;;29.56;29.12
16613;BME280;8419;52.358;9.752;2023-08-31T12:20:26;100209.00;;;29.76;28.47
16613;BME280;8419;52.358;9.752;2023-08-31T12:23:11;100210.00;;;30.03;27.90
16613;BME280;8419;52.358;9.752;2023-08-31T12:25:59;100208.00;;;30.22;27.65
16613;BME280;8419;52.358;9.752;2023-08-31T12:28:47;100202.00;;;30.60;27.27
16613;BME280;8419;52.358;9.752;2023-08-31T12:31:33;100217.00;;;30.87;26.85
16613;BME280;8419;52.358;9.752;2023-08-31T12:34:19;100199.00;;;30.23;27.47
16613;BME280;8419;52.358;9.752;2023-08-31T12:37:05;100216.00;;;29.84;27.64
16613;BME280;8419;52.358;9.752;2023-08-31T12:39:51;100206.00;;;29.18;27.85
16613;BME280;8419;52.358;9.752;2023-08-31T12:42:36;100211.00;;;28.85;28.32
16613;BME280;8419;52.358;9.752;2023-08-31T12:45:22;100205.00;;;29.05;28.32
16613;BME280;8419;52.358;9.752;2023-08-31T12:48:07;100213.00;;;29.62;27.89
16613;BME280;8419;52.358;9.752;2023-08-31T12:50:53;100209.00;;;29.71;27.84
16613;BME280;8419;52.358;9.752;2023-08-31T12:53:40;100225.00;;;29.41;28.01
16613;BME280;8419;52.358;9.752;2023-08-31T12:56:26;100212.00;;;28.92;28.63
16613;BME280;8419;52.358;9.752;2023-08-31T12:59:12;100221.00;;;28.68;28.96
16613;BME280;8419;52.358;9.752;2023-08-31T13:01:57;100216.00;;;28.98;28.76
16613;BME280;8419;52.358;9.752;2023-08-31T13:04:43;100219.00;;;29.51;28.47
16613;BME280;8419;52.358;9.752;2023-08-31T13:07:29;100221.00;;;29.61;28.28
16613;BME280;8419;52.358;9.752;2023-08-31T13:10:17;100234.00;;;29.90;27.92
16613;BME280;8419;52.358;9.752;2023-08-31T13:13:03;100238.00;;;29.76;27.84
16613;BME280;8419;52.358;9.752;2023-08-31T13:15:49;100238.00;;;29.58;27.73
16613;BME280;8419;52.358;9.752;2023-08-31T13:18:35;100241.00;;;29.14;28.01
16613;BME280;8419;52.358;9.752;2023-08-31T13:21:22;100233.00;;;28.74;28.46
16613;BME280;8419;52.358;9.752;2023-08-31T13:24:08;100238.00;;;28.52;28.82
16613;BME280;8419;52.358;9.752;2023-08-31T13:26:54;100232.00;;;28.32;29.16
16613;BME280;8419;52.358;9.752;2023-08-31T13:29:42;100234.00;;;28.40;29.25
16613;BME280;8419;52.358;9.752;2023-08-31T13:32:28;100231.00;;;28.49;29.15
16613;BME280;8419;52.358;9.752;2023-08-31T13:35:13;100242.00;;;28.19;29.51
16613;BME280;8419;52.358;9.752;2023-08-31T13:37:59;100247.00;;;27.81;29.71
16613;BME280;8419;52.358;9.752;2023-08-31T13:40:44;100255.00;;;27.51;29.71
16613;BME280;8419;52.358;9.752;2023-08-31T13:43:30;100267.00;;;27.25;29.79
16613;BME280;8419;52.358;9.752;2023-08-31T13:46:15;100270.00;;;27.21;29.90
16613;BME280;8419;52.358;9.752;2023-08-31T13:49:01;100283.00;;;27.09;30.29
16613;BME280;8419;52.358;9.752;2023-08-31T13:51:48;100277.00;;;26.84;31.29
16613;BME280;8419;52.358;9.752;2023-08-31T13:54:34;100282.00;;;25.94;33.74
16613;BME280;8419;52.358;9.752;2023-08-31T13:57:20;100288.00;;;25.13;35.89
16613;BME280;8419;52.358;9.752;2023-08-31T14:00:08;100292.00;;;24.63;37.56
16613;BME280;8419;52.358;9.752;2023-08-31T14:02:54;100291.00;;;24.10;39.00
16613;BME280;8419;52.358;9.752;2023-08-31T14:05:48;100288.00;;;23.80;39.96
16613;BME280;8419;52.358;9.752;2023-08-31T14:08:34;100303.00;;;23.61;40.70
16613;BME280;8419;52.358;9.752;2023-08-31T14:11:19;100317.00;;;23.45;41.64
16613;BME280;8419;52.358;9.752;2023-08-31T14:14:06;100303.00;;;23.33;41.93
16613;BME280;8419;52.358;9.752;2023-08-31T14:16:55;100297.00;;;23.20;42.34
16613;BME280;8419;52.358;9.752;2023-08-31T14:19:41;100294.00;;;23.04;42.57
16613;BME280;8419;52.358;9.752;2023-08-31T14:22:26;100299.00;;;22.92;42.92
16613;BME280;8419;52.358;9.752;2023-08-31T14:25:13;100291.00;;;23.20;42.70
16613;BME280;8419;52.358;9.752;2023-08-31T14:27:59;100290.00;;;23.42;42.38
16613;BME280;8419;52.358;9.752;2023-08-31T14:30:45;100288.00;;;23.63;41.99
16613;BME280;8419;52.358;9.752;2023-08-31T14:33:30;100289.00;;;24.06;41.69
16613;BME280;8419;52.358;9.752;2023-08-31T14:36:16;100298.00;;;25.09;40.55
16613;BME280;8419;52.358;9.752;2023-08-31T14:39:03;100302.00;;;25.72;39.39
16613;BME280;8419;52.358;9.752;2023-08-31T14:41:49;100302.00;;;25.85;38.99
16613;BME280;8419;52.358;9.752;2023-08-31T14:44:35;100307.00;;;26.06;38.57
16613;BME280;8419;52.358;9.752;2023-08-31T14:47:20;100313.00;;;26.32;38.07